X  Lukk Metar værinformasjon om luftfart     EDVE Braunschweig-Wolfsburg Airport
Temperatur
8°C Temperatur
7°C Duggpunkt
93% Luftfuktighet



Vind
0 KM/T
0 MPT
0 M/S
0 KNP



Stille
N
Nåværende forhold

Stort sett spredte skyer Stort sett spredte skyer
Trykk 1011.85 (hPa) - 29.88 (inHg)
Sikt 3.1 (mil) - 5 (km)
Flyplass
Flyplass-kode EDVE

Plassering: Braunschweig-Wolfsburg Airport
Avstand: 35 (km)

Metar:
EDVE 041950Z 00000KT 5000 SCT011 BKN015 OVC025 08/07 Q1012

Tid: 04-03-2024 20:50 CET